KGGW/GGW METAR and TAF weather

Enter ICAO airport designator
Station Type Date Time Source
KGGW METAR 2019/02/21 15:53 UTC NOAA

KGGW 211553Z AUTO 32011KT 9SM SCT026 OVC039 M17/M21 A3010 RMK AO2 SLP254 T11671206


Station Type Date Time Source
KGGW Decoded METAR 2019/02/21 15:53 UTC NOAA

GLASGOW INTERNATIONAL AIRPORT , MT, United States (KGGW) 48-13N 106-37W 693M
Feb 21, 2019 - 10:53 AM EST / 2019.02.21 1553 UTC
Wind: from the NW (320 degrees) at 13 MPH (11 KT):0
Visibility: 9 mile(s):0
Sky conditions: overcast
Temperature: 1.9 F (-16.7 C)
Windchill: -16 F (-27 C):2
Dew Point: -5.1 F (-20.6 C)
Relative Humidity: 71%
Pressure (altimeter): 30.1 in. Hg (1019 hPa)
ob: KGGW 211553Z AUTO 32011KT 9SM SCT026 OVC039 M17/M21 A3010 RMK AO2 SLP254 T11671206
cycle: 16

Station Type Date Time Source
KGGW TAF 2019/02/21 13:12 UTC NOAA

TAF
AMD KGGW 211309Z 2113/2212 33008KT P6SM VCSH SCT020 OVC050
FM211900 32008KT P6SM VCSH SCT030 BKN060
FM220400 VRB04KT P6SM SCT060 BKN150


Example: see airport list